createdAt,value
2023-03-03T00:00:47.418Z,101157.38
2023-03-03T00:03:19.100Z,101163.78
2023-03-03T00:05:47.691Z,101156.22
2023-03-03T00:08:16.065Z,101153.28
2023-03-03T00:10:45.278Z,101149.53
2023-03-03T00:13:19.036Z,101158.31
2023-03-03T00:15:49.531Z,101152.25
2023-03-03T00:18:26.919Z,101151.41
2023-03-03T00:20:57.345Z,101151.41
2023-03-03T00:23:32.787Z,101149.34
2023-03-03T00:26:01.199Z,101145.94
2023-03-03T00:28:31.911Z,101123.34
2023-03-03T00:31:03.543Z,101148.00
2023-03-03T00:33:34.759Z,101110.31
2023-03-03T00:36:23.834Z,101145.94
2023-03-03T00:38:52.378Z,101146.28
2023-03-03T00:41:25.217Z,101142.81
2023-03-03T00:43:54.872Z,101142.81
2023-03-03T00:46:25.388Z,101141.00
2023-03-03T00:48:53.924Z,101142.13
2023-03-03T00:51:33.344Z,101133.56
2023-03-03T00:54:01.906Z,101146.78
2023-03-03T00:56:30.282Z,101138.84
2023-03-03T00:58:58.740Z,101143.94
2023-03-03T01:01:31.030Z,101147.34
2023-03-03T01:03:59.472Z,101147.41
2023-03-03T01:06:28.341Z,101157.91
2023-03-03T01:08:57.572Z,101152.63
2023-03-03T01:11:28.818Z,101038.00
2023-03-03T01:13:58.181Z,101165.22
2023-03-03T01:16:28.585Z,101168.88
2023-03-03T01:18:58.455Z,101139.00
2023-03-03T01:21:26.817Z,101163.28
2023-03-03T01:23:55.370Z,101156.94
2023-03-03T01:26:23.742Z,101159.31
2023-03-03T01:28:52.275Z,101158.94
2023-03-03T01:31:20.766Z,101161.66
2023-03-03T01:33:49.234Z,101142.34
2023-03-03T01:36:24.800Z,100888.34
2023-03-03T01:38:53.536Z,101152.06
2023-03-03T01:41:22.431Z,101154.97
2023-03-03T01:43:51.813Z,101147.44
2023-03-03T01:46:38.337Z,101144.19
2023-03-03T01:49:12.521Z,101110.69
2023-03-03T01:51:48.860Z,101145.44
2023-03-03T01:54:23.202Z,101134.22
2023-03-03T01:56:53.364Z,101156.03
2023-03-03T01:59:24.691Z,101155.50
2023-03-03T02:01:53.843Z,101136.44
2023-03-03T02:04:22.743Z,101155.50
2023-03-03T02:06:58.314Z,101157.81
2023-03-03T02:09:35.466Z,101152.81
2023-03-03T02:12:08.423Z,101123.13
2023-03-03T02:14:36.919Z,101153.16
2023-03-03T02:17:05.364Z,101156.06
2023-03-03T02:19:44.051Z,101154.69
2023-03-03T02:22:18.548Z,101157.59
2023-03-03T02:24:51.308Z,101155.81
2023-03-03T02:27:22.571Z,101154.88
2023-03-03T02:29:52.445Z,101153.94
2023-03-03T02:32:20.957Z,101143.53
2023-03-03T02:34:50.911Z,101147.31
2023-03-03T02:37:20.627Z,101105.97
2023-03-03T02:39:49.165Z,101143.06
2023-03-03T02:42:21.868Z,101133.56
2023-03-03T02:44:56.087Z,101141.81
2023-03-03T02:47:25.141Z,101135.94
2023-03-03T02:49:53.679Z,101134.75
2023-03-03T02:52:22.102Z,101141.22
2023-03-03T02:54:51.217Z,101131.06
2023-03-03T02:57:19.583Z,101140.94
2023-03-03T02:59:49.821Z,101135.72
2023-03-03T03:02:20.776Z,101132.84
2023-03-03T03:04:49.217Z,101143.97
2023-03-03T03:07:22.477Z,101144.97
2023-03-03T03:09:51.085Z,101143.44
2023-03-03T03:12:21.009Z,101147.97
2023-03-03T03:14:52.412Z,101144.28
2023-03-03T03:17:22.757Z,101152.19
2023-03-03T03:19:52.884Z,101142.91
2023-03-03T03:22:21.833Z,101128.13
2023-03-03T03:24:50.784Z,101143.94
2023-03-03T03:27:19.431Z,101138.16
2023-03-03T03:29:49.696Z,101149.16
2023-03-03T03:32:19.410Z,101149.03
2023-03-03T03:34:49.691Z,101146.38
2023-03-03T03:37:18.137Z,101146.44
2023-03-03T03:39:47.900Z,101147.69
2023-03-03T03:42:16.435Z,101146.28
2023-03-03T03:44:45.350Z,101148.16
2023-03-03T03:47:13.741Z,101150.63
2023-03-03T03:49:42.384Z,101148.00
2023-03-03T03:52:12.263Z,101151.84
2023-03-03T03:54:41.007Z,101150.94
2023-03-03T03:57:09.468Z,101147.38
2023-03-03T03:59:37.980Z,101150.94
2023-03-03T04:02:06.812Z,101150.16
2023-03-03T04:04:35.602Z,101150.38
2023-03-03T04:07:04.113Z,101149.81
2023-03-03T04:09:33.985Z,101146.72
2023-03-03T04:12:03.198Z,101149.84
2023-03-03T04:14:32.549Z,101149.44
2023-03-03T04:17:01.663Z,101151.28
2023-03-03T04:19:30.070Z,101155.94
2023-03-03T04:21:58.720Z,101160.41
2023-03-03T04:24:27.659Z,101152.66
2023-03-03T04:26:58.560Z,101164.88
2023-03-03T04:29:27.100Z,101165.16
2023-03-03T04:31:55.705Z,101161.53
2023-03-03T04:34:24.952Z,101168.72
2023-03-03T04:36:53.362Z,101169.63
2023-03-03T04:39:21.846Z,101169.56
2023-03-03T04:41:50.371Z,101172.78
2023-03-03T04:44:21.042Z,101162.03
2023-03-03T04:46:50.193Z,101166.38
2023-03-03T04:49:19.852Z,101159.28
2023-03-03T04:51:48.690Z,101159.47
2023-03-03T04:54:17.139Z,101161.75
2023-03-03T04:56:46.935Z,101166.16
2023-03-03T04:59:15.745Z,101168.06
2023-03-03T05:01:52.085Z,101168.66
2023-03-03T05:04:24.654Z,101172.41
2023-03-03T05:06:53.127Z,101167.28
2023-03-03T05:09:21.560Z,101167.66
2023-03-03T05:11:49.923Z,101163.53
2023-03-03T05:14:18.381Z,101162.09
2023-03-03T05:16:48.188Z,101154.66
2023-03-03T05:19:16.663Z,101159.25
2023-03-03T05:21:45.123Z,101159.06
2023-03-03T05:24:15.125Z,101158.09
2023-03-03T05:26:43.914Z,101157.22
2023-03-03T05:29:12.383Z,101169.31
2023-03-03T05:31:40.857Z,101165.78
2023-03-03T05:34:10.848Z,101162.22
2023-03-03T05:36:40.268Z,101168.34
2023-03-03T05:39:08.953Z,101159.66
2023-03-03T05:41:37.336Z,101163.00
2023-03-03T05:44:05.978Z,101155.78
2023-03-03T05:46:34.424Z,101157.47
2023-03-03T05:49:03.153Z,101154.06
2023-03-03T05:51:32.964Z,101151.31
2023-03-03T05:54:01.655Z,101153.59
2023-03-03T05:56:30.077Z,101150.72
2023-03-03T05:58:58.425Z,101163.78
2023-03-03T06:01:27.161Z,101157.69
2023-03-03T06:03:55.596Z,101164.25
2023-03-03T06:06:26.154Z,101166.56
2023-03-03T06:08:57.362Z,101161.94
2023-03-03T06:11:26.423Z,101165.69
2023-03-03T06:13:56.476Z,101169.03
2023-03-03T06:16:25.719Z,101177.78
2023-03-03T06:18:55.033Z,101185.53
2023-03-03T06:21:23.519Z,101183.53
2023-03-03T06:23:51.978Z,101178.28
2023-03-03T06:26:21.766Z,101189.63
2023-03-03T06:28:50.379Z,101188.59
2023-03-03T06:31:18.772Z,101200.75
2023-03-03T06:33:47.392Z,101191.28
2023-03-03T06:36:15.880Z,101202.00
2023-03-03T06:38:44.263Z,101201.06
2023-03-03T06:41:13.101Z,101207.41
2023-03-03T06:43:42.959Z,101208.28
2023-03-03T06:46:11.491Z,101211.75
2023-03-03T06:48:40.895Z,101209.81
2023-03-03T06:51:21.585Z,101206.66
2023-03-03T06:53:50.439Z,101209.28
2023-03-03T06:56:19.844Z,101201.19
2023-03-03T06:58:50.564Z,101212.13
2023-03-03T07:01:20.160Z,101210.28
2023-03-03T07:03:48.601Z,101210.88
2023-03-03T07:06:23.680Z,101214.72
2023-03-03T07:08:53.035Z,101211.66
2023-03-03T07:11:23.270Z,101223.69
2023-03-03T07:13:55.530Z,101225.19
2023-03-03T07:16:28.343Z,101228.38
2023-03-03T07:19:01.659Z,101223.59
2023-03-03T07:21:34.786Z,101232.78
2023-03-03T07:24:19.182Z,101235.69
2023-03-03T07:26:47.595Z,101239.41
2023-03-03T07:29:25.578Z,101233.50
2023-03-03T07:31:56.105Z,101238.00
2023-03-03T07:34:25.850Z,101244.97
2023-03-03T07:36:57.473Z,101187.63
2023-03-03T07:39:40.053Z,101241.63
2023-03-03T07:42:22.153Z,101235.06
2023-03-03T07:45:00.191Z,101153.81
2023-03-03T07:47:31.180Z,101232.84
2023-03-03T07:50:02.826Z,101228.03
2023-03-03T07:52:40.934Z,101174.13
2023-03-03T07:55:27.369Z,101223.06
2023-03-03T07:57:59.160Z,101225.75
2023-03-03T08:01:12.337Z,101222.53
2023-03-03T08:03:45.000Z,101216.47
2023-03-03T08:06:32.894Z,101219.53
2023-03-03T08:09:14.347Z,101230.03
2023-03-03T08:11:52.985Z,101228.25
2023-03-03T08:14:28.740Z,101228.59
2023-03-03T08:16:59.849Z,101221.19
2023-03-03T08:19:32.556Z,101218.44
2023-03-03T08:22:04.531Z,101222.09
2023-03-03T08:24:33.014Z,101217.53
2023-03-03T08:27:01.813Z,101208.22
2023-03-03T08:29:30.343Z,101213.03
2023-03-03T08:31:58.836Z,101212.78
2023-03-03T08:34:27.436Z,101209.63
2023-03-03T08:36:58.690Z,101219.09
2023-03-03T08:39:27.070Z,101219.47
2023-03-03T08:41:55.607Z,101214.94
2023-03-03T08:44:24.086Z,101206.72
2023-03-03T08:46:52.511Z,101210.09
2023-03-03T08:49:27.024Z,101208.88
2023-03-03T08:51:57.169Z,101222.22
2023-03-03T08:54:25.528Z,101211.56
2023-03-03T08:56:53.939Z,101219.06
2023-03-03T08:59:22.495Z,101209.72
2023-03-03T09:01:51.035Z,101223.63
2023-03-03T09:04:19.524Z,101225.31
2023-03-03T09:06:48.481Z,101227.75
2023-03-03T09:09:18.364Z,101233.59
2023-03-03T09:11:47.359Z,101228.13
2023-03-03T09:14:18.054Z,101237.47
2023-03-03T09:16:51.342Z,101231.53
2023-03-03T09:19:24.788Z,101241.34
2023-03-03T09:21:55.038Z,101248.00
2023-03-03T09:24:30.844Z,101245.22
2023-03-03T09:27:00.883Z,101240.72
2023-03-03T09:29:31.177Z,101246.69
2023-03-03T09:32:02.400Z,101240.22
2023-03-03T09:34:40.426Z,101239.59
2023-03-03T09:37:23.983Z,101240.19
2023-03-03T09:39:55.723Z,101242.72
2023-03-03T09:42:43.716Z,101237.25
2023-03-03T09:45:34.637Z,101227.09
2023-03-03T09:48:34.163Z,101245.50
2023-03-03T09:51:14.237Z,101237.50
2023-03-03T09:54:15.354Z,101234.03
2023-03-03T09:56:50.639Z,101241.41
2023-03-03T09:59:43.843Z,101196.13
2023-03-03T10:02:32.258Z,101229.38
2023-03-03T10:05:15.901Z,101231.13
2023-03-03T10:07:56.034Z,101236.53
2023-03-03T10:10:55.635Z,101231.41
2023-03-03T10:13:40.120Z,101238.59
2023-03-03T10:16:23.873Z,101243.69
2023-03-03T10:19:00.081Z,101196.34
2023-03-03T10:21:35.974Z,101235.28
2023-03-03T10:24:15.617Z,101217.94
2023-03-03T10:27:13.467Z,101217.50
2023-03-03T10:29:56.697Z,101109.38
2023-03-03T10:32:48.868Z,101212.84
2023-03-03T10:35:32.439Z,101219.91
2023-03-03T10:38:27.573Z,101215.00
2023-03-03T10:41:05.538Z,101211.50
2023-03-03T10:43:51.811Z,101208.31
2023-03-03T10:46:37.324Z,101211.16
2023-03-03T10:49:28.284Z,101208.44
2023-03-03T10:52:21.345Z,101202.41
2023-03-03T10:55:05.693Z,101204.84
2023-03-03T10:57:40.106Z,101193.19
2023-03-03T11:00:25.584Z,101203.34
2023-03-03T11:03:32.887Z,101177.78
2023-03-03T11:06:06.611Z,101188.66
2023-03-03T11:08:42.541Z,101199.22
2023-03-03T11:11:19.182Z,101168.75
2023-03-03T11:13:53.002Z,101165.75
2023-03-03T11:16:43.551Z,101181.50
2023-03-03T11:19:27.309Z,101177.78
2023-03-03T11:22:08.690Z,101181.56
2023-03-03T11:24:51.307Z,101178.38
2023-03-03T11:27:32.285Z,101177.84
2023-03-03T11:30:35.669Z,101177.19
2023-03-03T11:33:08.028Z,101174.59
2023-03-03T11:35:44.517Z,101149.25
2023-03-03T11:38:45.456Z,101164.22
2023-03-03T11:41:24.937Z,101160.38
2023-03-03T11:43:55.914Z,101135.66
2023-03-03T11:46:30.934Z,101141.13
2023-03-03T11:49:04.517Z,101159.22
2023-03-03T11:51:45.478Z,101151.16
2023-03-03T11:54:22.307Z,101150.88
2023-03-03T11:56:56.564Z,101147.00
2023-03-03T11:59:46.165Z,101135.69
2023-03-03T12:02:38.800Z,101132.69
2023-03-03T12:05:13.030Z,101136.00
2023-03-03T12:07:51.240Z,101135.16
2023-03-03T12:10:25.443Z,101128.94
2023-03-03T12:13:04.107Z,101132.31
2023-03-03T12:15:39.806Z,101129.47
2023-03-03T12:18:23.181Z,101123.59
2023-03-03T12:21:04.072Z,101114.38
2023-03-03T12:23:49.909Z,101107.44
2023-03-03T12:26:26.735Z,101114.34
2023-03-03T12:29:04.739Z,100978.94
2023-03-03T12:31:45.773Z,101101.25
2023-03-03T12:34:20.636Z,101103.94
2023-03-03T12:37:00.654Z,101100.25
2023-03-03T12:39:49.485Z,101097.22
2023-03-03T12:42:26.735Z,101090.16
2023-03-03T12:45:06.561Z,101082.00
2023-03-03T12:47:40.390Z,101090.13
2023-03-03T12:50:28.246Z,101085.09
2023-03-03T12:53:09.978Z,101079.03
2023-03-03T12:55:49.650Z,101071.66
2023-03-03T12:58:29.814Z,101079.72
2023-03-03T13:01:08.877Z,101069.28
2023-03-03T13:03:55.288Z,101073.50
2023-03-03T13:06:31.127Z,101071.97
2023-03-03T13:09:20.980Z,101068.66
2023-03-03T13:12:13.802Z,101068.38
2023-03-03T13:14:50.680Z,101066.06
2023-03-03T13:17:29.043Z,101070.31
2023-03-03T13:20:01.167Z,101068.13
2023-03-03T13:22:38.081Z,101066.06
2023-03-03T13:25:18.648Z,101064.38
2023-03-03T13:27:52.273Z,101067.34
2023-03-03T13:30:25.232Z,101057.44
2023-03-03T13:33:01.063Z,101062.31
2023-03-03T13:35:40.263Z,101061.97
2023-03-03T13:38:13.246Z,101055.41
2023-03-03T13:40:46.429Z,101058.94
2023-03-03T13:43:20.547Z,101053.56
2023-03-03T13:45:57.873Z,101039.91
2023-03-03T13:48:46.582Z,101054.06
2023-03-03T13:51:25.255Z,101052.03
2023-03-03T13:54:03.396Z,101051.03
2023-03-03T13:56:50.969Z,101048.00
2023-03-03T13:59:30.930Z,101048.53
2023-03-03T14:02:08.502Z,101048.06
2023-03-03T14:04:50.914Z,101030.03
2023-03-03T14:07:24.562Z,101039.66
2023-03-03T14:10:03.585Z,101048.06
2023-03-03T14:12:43.442Z,101046.75
2023-03-03T14:15:22.170Z,101020.81
2023-03-03T14:18:20.104Z,101040.88
2023-03-03T14:20:52.972Z,101044.22
2023-03-03T14:23:26.857Z,101044.22
2023-03-03T14:25:59.892Z,101035.66
2023-03-03T14:28:30.747Z,101033.28
2023-03-03T14:31:02.302Z,101030.78
2023-03-03T14:33:32.497Z,101025.22
2023-03-03T14:36:07.199Z,101019.84
2023-03-03T14:38:42.795Z,101025.06
2023-03-03T14:41:23.381Z,100950.63
2023-03-03T14:43:59.890Z,101003.97
2023-03-03T14:46:38.246Z,101024.69
2023-03-03T14:49:08.763Z,101022.00
2023-03-03T14:51:46.934Z,101016.97
2023-03-03T14:54:22.414Z,101016.97
2023-03-03T14:57:12.239Z,101020.00
2023-03-03T14:59:41.008Z,101022.81
2023-03-03T15:02:30.226Z,101017.78
2023-03-03T15:05:18.844Z,101021.94
2023-03-03T15:07:51.991Z,101018.06
2023-03-03T15:10:36.052Z,101017.91
2023-03-03T15:13:39.836Z,101019.25
2023-03-03T15:16:18.018Z,100990.44
2023-03-03T15:19:10.281Z,101029.50
2023-03-03T15:21:45.964Z,101036.88
2023-03-03T15:24:22.793Z,101025.47
2023-03-03T15:26:57.980Z,101022.94
2023-03-03T15:29:31.857Z,100989.09
2023-03-03T15:32:06.505Z,101037.06
2023-03-03T15:34:41.653Z,101033.00
2023-03-03T15:37:28.119Z,101031.78
2023-03-03T15:40:04.425Z,101037.69
2023-03-03T15:42:39.484Z,101029.25
2023-03-03T15:45:17.256Z,100893.47
2023-03-03T15:48:01.716Z,101042.19
2023-03-03T15:50:41.662Z,101044.19
2023-03-03T15:53:27.222Z,101048.88
2023-03-03T15:56:07.397Z,101048.53
2023-03-03T15:59:06.304Z,101052.69
2023-03-03T16:01:36.251Z,101051.84
2023-03-03T16:04:10.960Z,101009.44
2023-03-03T16:06:48.553Z,101058.75
2023-03-03T16:09:33.388Z,101061.91
2023-03-03T16:12:13.133Z,101062.84
2023-03-03T16:15:06.526Z,101059.78
2023-03-03T16:17:44.544Z,101066.47
2023-03-03T16:20:22.360Z,101064.63
2023-03-03T16:23:28.754Z,101073.19
2023-03-03T16:26:06.219Z,101063.47
2023-03-03T16:28:49.808Z,101069.31
2023-03-03T16:31:23.055Z,101071.06
2023-03-03T16:34:02.265Z,101077.25
2023-03-03T16:36:38.482Z,101081.38
2023-03-03T16:39:14.508Z,101091.03
2023-03-03T16:41:52.619Z,101096.00
2023-03-03T16:44:48.804Z,101099.78
2023-03-03T16:47:30.965Z,101095.31
2023-03-03T16:50:13.224Z,101101.13
2023-03-03T16:52:48.985Z,101103.59
2023-03-03T16:55:21.923Z,101106.56
2023-03-03T16:58:00.788Z,101111.09
2023-03-03T17:00:36.288Z,101111.53
2023-03-03T17:03:32.859Z,101127.22
2023-03-03T17:06:07.548Z,101132.47
2023-03-03T17:08:56.492Z,101130.72
2023-03-03T17:11:33.193Z,101134.81
2023-03-03T17:14:37.556Z,101144.44
2023-03-03T17:17:15.409Z,101146.56
2023-03-03T17:19:57.505Z,101148.81
2023-03-03T17:22:41.573Z,101145.03
2023-03-03T17:25:18.700Z,101146.88
2023-03-03T17:28:25.092Z,101155.78
2023-03-03T17:31:03.677Z,101154.41
2023-03-03T17:34:00.479Z,101168.78
2023-03-03T17:36:45.561Z,101163.44
2023-03-03T17:39:46.130Z,101165.38
2023-03-03T17:42:22.993Z,101169.88
2023-03-03T17:45:03.348Z,101181.59
2023-03-03T17:47:47.463Z,101181.97
2023-03-03T17:50:58.697Z,101194.41
2023-03-03T17:53:45.645Z,101192.31
2023-03-03T17:56:22.105Z,101205.28
2023-03-03T17:59:18.929Z,101203.19
2023-03-03T18:02:02.644Z,101205.59
2023-03-03T18:04:46.338Z,101206.31
2023-03-03T18:07:29.691Z,101206.59
2023-03-03T18:10:43.121Z,101206.84
2023-03-03T18:13:31.109Z,101187.19
2023-03-03T18:16:14.311Z,101210.16
2023-03-03T18:19:01.239Z,101224.47
2023-03-03T18:21:35.226Z,101236.28
2023-03-03T18:24:30.054Z,101200.06
2023-03-03T18:27:15.612Z,101242.94
2023-03-03T18:30:25.084Z,101250.47
2023-03-03T18:33:14.881Z,101248.00
2023-03-03T18:35:45.035Z,101241.47
2023-03-03T18:38:35.072Z,101254.44
2023-03-03T18:41:04.470Z,101252.59
2023-03-03T18:44:25.072Z,101254.97
2023-03-03T18:46:55.371Z,101264.44
2023-03-03T18:49:57.788Z,101262.22
2023-03-03T18:52:29.380Z,101260.56
2023-03-03T18:55:26.166Z,101261.38
2023-03-03T18:58:29.946Z,101269.41
2023-03-03T19:01:09.370Z,101270.91
2023-03-03T19:03:58.369Z,101259.88
2023-03-03T19:06:53.981Z,101278.44
2023-03-03T19:09:52.583Z,101287.63
2023-03-03T19:12:52.267Z,101288.16
2023-03-03T19:15:44.466Z,101293.19
2023-03-03T19:18:21.226Z,101301.56
2023-03-03T19:20:55.744Z,101300.09
2023-03-03T19:23:35.545Z,101294.34
2023-03-03T19:26:35.716Z,101303.06
2023-03-03T19:29:16.516Z,101305.78
2023-03-03T19:31:54.594Z,101312.66
2023-03-03T19:34:30.973Z,101314.25
2023-03-03T19:37:08.623Z,101322.06
2023-03-03T19:39:52.724Z,101315.69
2023-03-03T19:42:35.983Z,101258.19
2023-03-03T19:45:14.685Z,101329.81
2023-03-03T19:47:49.477Z,101332.47
2023-03-03T19:50:31.871Z,101341.38
2023-03-03T19:53:09.032Z,101344.53
2023-03-03T19:55:50.421Z,101349.91
2023-03-03T19:58:30.423Z,101343.66
2023-03-03T20:01:08.596Z,101339.28
2023-03-03T20:04:00.605Z,101348.53
2023-03-03T20:06:52.228Z,101309.66
2023-03-03T20:09:31.294Z,101357.31
2023-03-03T20:12:27.523Z,101363.00
2023-03-03T20:15:09.801Z,101330.53
2023-03-03T20:17:58.736Z,101367.69
2023-03-03T20:20:58.272Z,101370.91
2023-03-03T20:23:36.897Z,101373.28
2023-03-03T20:26:15.406Z,101381.50
2023-03-03T20:29:07.987Z,101384.13
2023-03-03T20:31:42.820Z,101366.94
2023-03-03T20:34:18.936Z,101374.88
2023-03-03T20:36:57.889Z,101384.78
2023-03-03T20:39:45.133Z,101379.94
2023-03-03T20:42:23.039Z,101393.38
2023-03-03T20:45:04.699Z,101393.59
2023-03-03T20:47:43.701Z,101394.41
2023-03-03T20:50:22.697Z,101390.03
2023-03-03T20:53:03.027Z,101401.75
2023-03-03T20:55:43.459Z,101385.00
2023-03-03T20:58:22.968Z,101400.88
2023-03-03T21:00:59.435Z,101404.09
2023-03-03T21:03:34.394Z,101417.03
2023-03-03T21:06:05.167Z,101410.41
2023-03-03T21:08:49.889Z,101416.28
2023-03-03T21:11:23.249Z,101413.41
2023-03-03T21:13:54.476Z,101345.19
2023-03-03T21:16:35.916Z,101414.72
2023-03-03T21:19:07.234Z,101410.16
2023-03-03T21:21:37.498Z,101284.84
2023-03-03T21:24:09.037Z,101407.19
2023-03-03T21:26:51.439Z,101419.09
2023-03-03T21:29:22.342Z,101423.84
2023-03-03T21:31:52.321Z,101301.56
2023-03-03T21:34:24.668Z,101398.56
2023-03-03T21:36:54.532Z,101410.50
2023-03-03T21:39:29.190Z,101427.94
2023-03-03T21:42:02.205Z,101427.47
2023-03-03T21:44:34.552Z,101427.22
2023-03-03T21:47:04.476Z,101428.09
2023-03-03T21:49:33.030Z,101422.63
2023-03-03T21:52:04.448Z,101426.53
2023-03-03T21:54:33.642Z,101417.03
2023-03-03T21:57:04.893Z,101441.16
2023-03-03T21:59:33.379Z,101435.47
2023-03-03T22:02:01.913Z,101429.03
2023-03-03T22:04:31.436Z,101432.16
2023-03-03T22:07:00.124Z,101430.97
2023-03-03T22:09:29.210Z,101437.97
2023-03-03T22:11:57.716Z,101426.31
2023-03-03T22:14:27.979Z,101420.06
2023-03-03T22:16:57.535Z,101430.00
2023-03-03T22:19:26.358Z,101428.94
2023-03-03T22:21:54.776Z,101435.56
2023-03-03T22:24:23.214Z,101438.78
2023-03-03T22:26:51.670Z,101443.81
2023-03-03T22:29:23.129Z,101434.81
2023-03-03T22:31:53.228Z,101438.56
2023-03-03T22:34:21.742Z,101441.47
2023-03-03T22:36:50.117Z,101438.66
2023-03-03T22:39:18.581Z,101437.31
2023-03-03T22:41:47.100Z,101439.66
2023-03-03T22:44:15.589Z,101438.88
2023-03-03T22:46:43.968Z,101443.44
2023-03-03T22:49:13.841Z,101440.88
2023-03-03T22:51:42.303Z,101438.31
2023-03-03T22:54:10.675Z,101445.53
2023-03-03T22:56:39.123Z,101440.13
2023-03-03T22:59:07.560Z,101441.44
2023-03-03T23:01:37.975Z,101447.69
2023-03-03T23:04:07.164Z,101444.28
2023-03-03T23:06:36.987Z,101446.47
2023-03-03T23:09:05.608Z,101445.34
2023-03-03T23:11:34.082Z,101445.94
2023-03-03T23:14:02.665Z,101441.75
2023-03-03T23:16:31.101Z,101441.28
2023-03-03T23:18:59.710Z,101448.38
2023-03-03T23:21:28.182Z,101445.75
2023-03-03T23:23:58.170Z,101450.38
2023-03-03T23:26:26.779Z,101440.34
2023-03-03T23:28:55.229Z,101444.50
2023-03-03T23:31:25.628Z,101462.75
2023-03-03T23:33:54.167Z,101457.00
2023-03-03T23:36:22.570Z,101461.63
2023-03-03T23:38:50.948Z,101456.31
2023-03-03T23:41:20.797Z,101447.09
2023-03-03T23:43:49.227Z,101457.69
2023-03-03T23:46:17.776Z,101460.69
2023-03-03T23:48:46.337Z,101447.72
2023-03-03T23:51:14.794Z,101443.09
2023-03-03T23:53:43.241Z,101450.28
2023-03-03T23:56:11.617Z,101448.78
2023-03-03T23:58:41.452Z,101441.78
